Time;durP1;ratioP1;P1;durP2;ratioP2;P2;SDS_P1;SDS_P2;PMS_P1;PMS_P2;Temp;Humidity;BMP_temperature;BMP_pressure;BME280_temperature;BME280_humidity;BME280_pressure;Samples;Min_cycle;Max_cycle;Signal;HPM_P1;HPM_P2
2022/11/12 00:00:38;;;;;;;0.65;0.65;;;13.70;99.90;;;;;;5111976;28;20191;-77
2022/11/12 00:03:04;;;;;;;0.70;0.70;;;13.70;99.90;;;;;;5114815;28;20267;-77
2022/11/12 00:05:30;;;;;;;1.15;1.05;;;13.70;99.90;;;;;;5099594;28;20249;-77
2022/11/12 00:07:56;;;;;;;0.10;0.10;;;13.70;99.90;;;;;;5098031;28;20199;-78
2022/11/12 00:10:22;;;;;;;0.10;0.10;;;13.60;99.90;;;;;;5099998;28;20249;-79
2022/11/12 00:12:48;;;;;;;0.88;0.88;;;13.60;99.90;;;;;;5118746;27;20561;-76
2022/11/12 00:15:14;;;;;;;0.10;0.10;;;13.70;99.90;;;;;;5116637;28;20207;-77
2022/11/12 00:17:39;;;;;;;0.25;0.25;;;13.70;99.90;;;;;;5115596;28;20195;-77
2022/11/12 00:20:06;;;;;;;0.30;0.30;;;13.70;99.90;;;;;;5093554;28;20196;-77
2022/11/12 00:22:32;;;;;;;1.88;0.85;;;13.70;99.90;;;;;;5076709;28;20557;-77
2022/11/12 00:24:58;;;;;;;0.22;0.22;;;13.60;99.90;;;;;;5080900;28;20192;-77
2022/11/12 00:27:27;;;;;;;0.20;0.20;;;13.60;99.90;;;;;;5113957;28;20200;-76
2022/11/12 00:29:52;;;;;;;0.47;0.47;;;13.60;99.90;;;;;;5095254;28;20205;-77
2022/11/12 00:32:19;;;;;;;0.20;0.20;;;13.60;99.90;;;;;;5095541;28;20203;-77
2022/11/12 00:34:44;;;;;;;0.20;0.20;;;13.60;99.90;;;;;;5114162;28;20199;-77
2022/11/12 00:37:10;;;;;;;0.45;0.45;;;13.60;99.90;;;;;;5115598;28;20190;-78
2022/11/12 00:39:36;;;;;;;1.00;0.55;;;13.60;99.90;;;;;;5097734;28;20226;-79
2022/11/12 00:42:02;;;;;;;0.25;0.25;;;13.60;99.90;;;;;;5095301;28;20191;-78
2022/11/12 00:44:28;;;;;;;0.57;0.43;;;13.60;99.90;;;;;;5094578;28;20198;-77
2022/11/12 00:46:57;;;;;;;1.17;1.02;;;13.60;99.90;;;;;;5113330;28;20567;-78
2022/11/12 00:49:23;;;;;;;0.65;0.43;;;13.60;99.90;;;;;;5113204;28;20646;-78
2022/11/12 00:51:48;;;;;;;0.10;0.10;;;13.60;99.90;;;;;;5113122;28;20675;-77
2022/11/12 00:54:14;;;;;;;0.20;0.20;;;13.60;99.90;;;;;;5094937;28;20203;-77
2022/11/12 00:56:44;;;;;;;0.30;0.30;;;13.50;99.90;;;;;;5081687;28;20224;-77
2022/11/12 00:59:10;;;;;;;0.65;0.65;;;13.50;99.90;;;;;;5093187;28;20203;-78
2022/11/12 01:01:39;;;;;;;0.20;0.20;;;13.50;99.90;;;;;;5092055;28;20245;-79
2022/11/12 01:04:05;;;;;;;0.30;0.30;;;13.50;99.90;;;;;;5092525;28;20196;-77
2022/11/12 01:06:31;;;;;;;0.20;0.20;;;13.50;99.90;;;;;;5075721;28;20333;-78
2022/11/12 01:08:57;;;;;;;0.10;0.10;;;13.60;99.90;;;;;;5093267;28;20188;-79
2022/11/12 01:11:30;;;;;;;0.20;0.20;;;13.50;99.90;;;;;;5075420;28;20204;-79
2022/11/12 01:13:58;;;;;;;14.27;0.93;;;13.50;99.90;;;;;;5095380;28;20192;-77
2022/11/12 01:16:27;;;;;;;1.20;0.85;;;13.50;99.90;;;;;;5092382;28;20196;-77
2022/11/12 01:18:55;;;;;;;3.15;1.40;;;13.50;99.90;;;;;;5093384;28;20195;-78
2022/11/12 01:21:23;;;;;;;0.20;0.20;;;13.50;99.90;;;;;;5098301;28;20240;-77
2022/11/12 01:23:49;;;;;;;0.20;0.20;;;13.50;99.90;;;;;;5094749;28;20320;-78
2022/11/12 01:26:16;;;;;;;0.55;0.55;;;13.50;99.90;;;;;;5094792;28;20195;-77
2022/11/12 01:28:43;;;;;;;0.30;0.30;;;13.50;99.90;;;;;;5116359;28;20199;-78
2022/11/12 01:31:16;;;;;;;1.42;0.90;;;13.50;99.90;;;;;;5116771;28;20196;-79
2022/11/12 01:33:43;;;;;;;0.20;0.20;;;13.50;99.90;;;;;;5117412;28;20195;-78
2022/11/12 01:36:09;;;;;;;0.75;0.75;;;13.50;99.90;;;;;;5116803;28;20215;-78
2022/11/12 01:38:37;;;;;;;0.22;0.22;;;13.50;99.90;;;;;;5116512;28;20552;-78
2022/11/12 01:41:12;;;;;;;1.00;0.80;;;13.50;99.90;;;;;;5116377;28;20188;-79
2022/11/12 01:43:38;;;;;;;2.33;0.95;;;13.40;99.90;;;;;;5098256;28;20664;-78
2022/11/12 01:46:15;;;;;;;0.80;0.80;;;13.50;99.90;;;;;;5116528;28;20199;-78
2022/11/12 01:48:55;;;;;;;0.28;0.28;;;13.40;99.90;;;;;;5097936;28;20239;-78
2022/11/12 01:51:27;;;;;;;0.30;0.30;;;13.40;99.90;;;;;;5115948;28;20658;-78
2022/11/12 01:53:56;;;;;;;0.55;0.38;;;13.40;99.90;;;;;;5077436;28;20204;-78
2022/11/12 01:56:25;;;;;;;0.45;0.45;;;13.40;99.90;;;;;;5095229;28;20695;-78
2022/11/12 01:58:57;;;;;;;0.30;0.30;;;13.40;99.90;;;;;;5077575;28;20675;-77
2022/11/12 02:01:27;;;;;;;0.30;0.30;;;13.40;99.90;;;;;;5077832;28;20667;-79
2022/11/12 02:03:53;;;;;;;0.85;0.52;;;13.40;99.90;;;;;;5077943;28;20249;-79
2022/11/12 02:06:19;;;;;;;0.70;0.63;;;13.50;99.90;;;;;;5077392;28;20714;-80
2022/11/12 02:08:46;;;;;;;0.10;0.10;;;13.50;99.90;;;;;;5077843;28;20647;-80
2022/11/12 02:11:30;;;;;;;0.30;0.30;;;13.40;99.90;;;;;;5114910;27;20233;-79
2022/11/12 02:13:59;;;;;;;0.63;0.63;;;13.50;99.90;;;;;;5118491;27;20194;-79
2022/11/12 02:16:37;;;;;;;0.10;0.10;;;13.40;99.90;;;;;;5136924;27;20195;-80
2022/11/12 02:19:06;;;;;;;0.98;0.80;;;13.40;99.90;;;;;;5115039;28;20274;-79
2022/11/12 02:21:33;;;;;;;1.85;0.90;;;13.40;99.90;;;;;;5115029;28;20234;-79
2022/11/12 02:24:10;;;;;;;2.05;0.47;;;13.40;99.90;;;;;;5116562;28;20197;-79
2022/11/12 02:26:41;;;;;;;0.80;0.65;;;13.40;99.90;;;;;;5115986;28;20211;-79
2022/11/12 02:29:07;;;;;;;0.30;0.30;;;13.40;99.90;;;;;;5114918;28;20215;-79
2022/11/12 02:31:34;;;;;;;7.38;1.05;;;13.50;99.90;;;;;;5114600;28;20286;-79
2022/11/12 02:34:00;;;;;;;0.85;0.85;;;13.40;99.90;;;;;;5114707;28;20597;-79
2022/11/12 02:36:29;;;;;;;0.80;0.80;;;13.40;99.90;;;;;;5114475;28;20621;-79
2022/11/12 02:39:00;;;;;;;2.55;0.95;;;13.50;99.90;;;;;;5081138;28;20248;-78
2022/11/12 02:41:27;;;;;;;2.08;1.45;;;13.40;99.90;;;;;;5080760;28;20206;-78
2022/11/12 02:43:53;;;;;;;1.85;0.65;;;13.40;99.90;;;;;;5097386;28;20198;-79
2022/11/12 02:46:19;;;;;;;0.52;0.52;;;13.30;99.90;;;;;;5097557;28;20204;-77
2022/11/12 02:48:48;;;;;;;0.10;0.10;;;13.30;99.90;;;;;;5081494;28;20546;-80
2022/11/12 02:51:14;;;;;;;0.10;0.10;;;13.30;99.90;;;;;;5098018;28;20192;-76
2022/11/12 02:53:41;;;;;;;0.40;0.40;;;13.30;99.90;;;;;;5095918;28;20684;-80
2022/11/12 02:56:07;;;;;;;0.40;0.40;;;13.20;99.90;;;;;;5080664;28;20690;-80
2022/11/12 02:58:32;;;;;;;0.13;0.13;;;13.20;99.90;;;;;;5077248;28;20686;-76
2022/11/12 03:01:00;;;;;;;0.20;0.20;;;13.10;99.90;;;;;;5079932;28;20180;-78
2022/11/12 03:03:35;;;;;;;1.13;1.08;;;13.20;99.90;;;;;;5096558;28;20192;-78
2022/11/12 03:06:02;;;;;;;2.25;1.00;;;13.20;99.90;;;;;;5077879;28;20199;-78
2022/11/12 03:08:30;;;;;;;0.65;0.65;;;13.10;99.90;;;;;;5077974;28;20210;-79
2022/11/12 03:10:56;;;;;;;0.28;0.28;;;13.00;99.90;;;;;;5095214;28;20539;-78
2022/11/12 03:13:22;;;;;;;2.80;0.80;;;13.00;99.90;;;;;;5096601;28;20659;-79
2022/11/12 03:15:48;;;;;;;0.22;0.22;;;12.90;99.90;;;;;;5097905;28;20218;-78
2022/11/12 03:18:15;;;;;;;14.80;0.85;;;12.80;99.90;;;;;;5097384;28;20196;-79
2022/11/12 03:20:42;;;;;;;0.22;0.22;;;12.80;99.90;;;;;;5097256;28;20201;-79
2022/11/12 03:23:12;;;;;;;0.20;0.20;;;12.70;99.90;;;;;;5097736;28;20192;-79
2022/11/12 03:25:39;;;;;;;0.40;0.40;;;12.70;99.90;;;;;;5115809;28;20608;-79
2022/11/12 03:28:11;;;;;;;0.65;0.63;;;12.70;99.90;;;;;;5098112;28;20202;-78
2022/11/12 03:30:39;;;;;;;0.20;0.20;;;12.60;99.90;;;;;;5097966;28;20210;-79
2022/11/12 03:33:07;;;;;;;0.63;0.40;;;12.60;99.90;;;;;;5095288;28;20196;-78
2022/11/12 03:35:33;;;;;;;0.20;0.20;;;12.60;99.90;;;;;;5061691;28;20316;-78
2022/11/12 03:38:00;;;;;;;0.35;0.35;;;12.60;99.90;;;;;;5079004;28;20204;-78
2022/11/12 03:40:35;;;;;;;3.25;0.85;;;12.60;99.90;;;;;;5080721;28;20188;-79
2022/11/12 03:43:01;;;;;;;0.20;0.20;;;12.60;99.90;;;;;;5080087;28;20191;-78
2022/11/12 03:45:28;;;;;;;0.10;0.10;;;12.50;99.90;;;;;;5098719;28;20200;-78
2022/11/12 03:47:57;;;;;;;0.20;0.20;;;12.50;99.90;;;;;;5080427;28;20718;-79
2022/11/12 03:50:28;;;;;;;0.25;0.25;;;12.50;99.90;;;;;;5080334;28;20219;-79
2022/11/12 03:52:57;;;;;;;0.20;0.20;;;12.50;99.90;;;;;;5096708;28;20222;-78
2022/11/12 03:55:25;;;;;;;0.20;0.20;;;12.50;99.90;;;;;;5110131;28;20246;-78
2022/11/12 03:57:53;;;;;;;0.20;0.20;;;12.50;99.90;;;;;;5108532;28;20192;-79
2022/11/12 04:00:21;;;;;;;0.43;0.43;;;12.40;99.90;;;;;;5092398;28;20203;-77
2022/11/12 04:02:47;;;;;;;0.60;0.52;;;12.40;99.90;;;;;;5110213;28;20283;-78
2022/11/12 04:10:47;;;;;;;2.08;0.80;;;12.30;99.90;;;;;;5129031;28;20217;-78
2022/11/12 04:13:28;;;;;;;0.20;0.20;;;12.20;99.90;;;;;;5109948;28;20191;-78
2022/11/12 04:27:18;;;;;;;0.30;0.30;;;11.70;99.90;;;;;;5118853;28;20613;-79
2022/11/12 04:32:32;;;;;;;0.20;0.20;;;11.70;99.90;;;;;;5117341;28;20673;-79
2022/11/12 04:34:58;;;;;;;0.15;0.15;;;11.70;99.90;;;;;;5097545;28;20210;-79
2022/11/12 04:37:26;;;;;;;0.75;0.75;;;11.80;99.90;;;;;;5096085;28;20199;-79
2022/11/12 04:39:53;;;;;;;0.28;0.28;;;11.70;99.90;;;;;;5114850;28;20286;-78
2022/11/12 04:45:09;;;;;;;0.30;0.30;;;11.70;99.90;;;;;;5115241;28;20612;-78
2022/11/12 04:47:38;;;;;;;0.20;0.20;;;11.50;99.90;;;;;;5115019;28;20183;-78
2022/11/12 04:50:07;;;;;;;1.08;0.98;;;11.40;99.90;;;;;;5078828;28;20299;-78
2022/11/12 04:52:33;;;;;;;1.75;0.95;;;11.30;99.90;;;;;;5078574;28;20256;-78
2022/11/12 04:54:59;;;;;;;0.50;0.50;;;11.20;99.90;;;;;;5096328;28;20231;-78
2022/11/12 04:57:26;;;;;;;0.20;0.20;;;11.30;99.90;;;;;;5114987;28;20198;-78
2022/11/12 04:59:52;;;;;;;0.20;0.20;;;11.40;99.90;;;;;;5096990;28;20669;-79
2022/11/12 05:02:21;;;;;;;0.20;0.20;;;11.60;99.90;;;;;;5097991;28;20693;-79
2022/11/12 05:04:48;;;;;;;0.20;0.20;;;11.70;99.90;;;;;;5081518;28;20207;-78
2022/11/12 05:07:17;;;;;;;0.60;0.60;;;11.70;99.90;;;;;;5112119;28;20290;-78
2022/11/12 05:09:43;;;;;;;0.50;0.50;;;11.70;99.90;;;;;;5119708;28;20206;-79
2022/11/12 05:12:09;;;;;;;2.83;0.38;;;11.60;99.90;;;;;;5105999;28;20539;-79
2022/11/12 05:14:35;;;;;;;0.40;0.40;;;11.60;99.90;;;;;;5117069;28;20207;-79
2022/11/12 05:17:01;;;;;;;0.17;0.17;;;11.60;99.90;;;;;;5116827;28;20282;-79
2022/11/12 05:19:26;;;;;;;0.25;0.25;;;11.60;99.90;;;;;;5119278;28;20227;-79
2022/11/12 05:22:04;;;;;;;0.30;0.30;;;11.70;99.90;;;;;;5120308;28;20195;-79
2022/11/12 05:24:36;;;;;;;0.30;0.30;;;11.70;99.90;;;;;;5117595;28;20626;-79
2022/11/12 05:27:03;;;;;;;0.30;0.30;;;11.70;99.90;;;;;;5120344;28;20207;-79
2022/11/12 05:29:29;;;;;;;3.15;0.77;;;11.70;99.90;;;;;;5101795;28;20256;-78
2022/11/12 05:31:58;;;;;;;0.20;0.20;;;11.70;99.90;;;;;;5100349;28;20573;-80
2022/11/12 05:34:26;;;;;;;0.20;0.20;;;11.70;99.90;;;;;;5102598;28;20206;-79
2022/11/12 05:36:53;;;;;;;1.45;1.08;;;11.70;99.90;;;;;;5101563;28;20253;-79
2022/11/12 05:39:18;;;;;;;0.35;0.32;;;11.70;99.90;;;;;;5119177;28;20654;-79
2022/11/12 05:41:45;;;;;;;0.20;0.20;;;11.70;99.90;;;;;;5119253;28;20249;-80
2022/11/12 05:44:10;;;;;;;0.20;0.20;;;11.70;99.90;;;;;;5117783;28;20196;-80
2022/11/12 05:46:36;;;;;;;4.85;1.65;;;11.70;99.90;;;;;;5112512;28;20276;-80
2022/11/12 05:49:02;;;;;;;0.75;0.63;;;11.70;99.90;;;;;;5117537;28;20705;-80
2022/11/12 05:51:28;;;;;;;0.20;0.20;;;11.70;99.90;;;;;;5101240;28;20222;-80
2022/11/12 05:53:58;;;;;;;0.15;0.15;;;11.60;99.90;;;;;;5117884;28;20195;-79
2022/11/12 05:56:27;;;;;;;0.20;0.20;;;11.50;99.90;;;;;;5116368;28;20254;-79
2022/11/12 05:58:53;;;;;;;2.65;1.85;;;11.50;99.90;;;;;;5117234;28;20230;-80
2022/11/12 06:01:18;;;;;;;1.65;0.90;;;11.50;99.90;;;;;;5115668;28;20220;-79
2022/11/12 06:03:44;;;;;;;0.20;0.20;;;11.40;99.90;;;;;;5116862;28;20259;-80
2022/11/12 06:06:11;;;;;;;0.20;0.20;;;11.30;99.90;;;;;;5099562;28;20646;-79
2022/11/12 06:08:39;;;;;;;0.20;0.20;;;11.20;99.90;;;;;;5098863;28;20196;-81
2022/11/12 06:11:05;;;;;;;0.25;0.25;;;11.20;99.90;;;;;;5117873;28;20195;-80
2022/11/12 06:13:31;;;;;;;0.40;0.40;;;11.10;99.90;;;;;;5101034;28;20195;-80
2022/11/12 06:15:57;;;;;;;0.20;0.20;;;11.10;99.90;;;;;;5117638;28;20203;-80
2022/11/12 06:18:23;;;;;;;0.20;0.20;;;11.10;99.90;;;;;;5097693;28;20217;-80
2022/11/12 06:21:35;;;;;;;9.10;0.95;;;11.10;99.90;;;;;;5098909;28;20255;-80
2022/11/12 06:23:36;;;;;;;0.20;0.20;;;10.90;99.90;;;;;;5091762;28;20297;-80
2022/11/12 06:26:05;;;;;;;1.10;0.68;;;10.70;99.90;;;;;;5098296;28;20261;-80
2022/11/12 06:28:30;;;;;;;0.20;0.20;;;10.70;99.90;;;;;;5098681;28;20223;-80
2022/11/12 06:31:06;;;;;;;11.55;0.73;;;10.60;99.90;;;;;;5098773;28;20260;-80
2022/11/12 06:33:32;;;;;;;0.20;0.20;;;10.60;99.90;;;;;;5098257;28;20205;-80
2022/11/12 06:36:05;;;;;;;4.53;0.52;;;10.60;99.90;;;;;;5098110;28;20290;-80
2022/11/12 06:38:36;;;;;;;0.20;0.20;;;10.50;99.90;;;;;;5098187;28;20191;-80
2022/11/12 06:41:02;;;;;;;0.20;0.20;;;10.50;99.90;;;;;;5098203;28;20192;-80
2022/11/12 06:43:31;;;;;;;0.20;0.20;;;10.30;99.90;;;;;;5098251;28;20198;-80
2022/11/12 06:46:01;;;;;;;0.52;0.52;;;10.30;99.90;;;;;;5098559;28;20216;-80
2022/11/12 06:48:32;;;;;;;0.10;0.10;;;10.30;99.90;;;;;;5098527;28;20199;-79
2022/11/12 06:51:05;;;;;;;0.20;0.20;;;10.30;99.90;;;;;;5097982;28;20195;-80
2022/11/12 06:53:30;;;;;;;0.20;0.20;;;10.20;99.90;;;;;;5097737;28;20623;-79
2022/11/12 06:56:02;;;;;;;0.20;0.20;;;10.40;99.90;;;;;;5116564;28;20239;-79
2022/11/12 06:58:27;;;;;;;0.20;0.20;;;10.40;99.90;;;;;;5095678;28;20726;-80
2022/11/12 07:00:53;;;;;;;0.20;0.20;;;10.30;99.90;;;;;;5078804;28;20196;-80
2022/11/12 07:03:19;;;;;;;9.27;0.85;;;10.30;99.90;;;;;;5077594;28;20192;-79
2022/11/12 07:05:44;;;;;;;0.50;0.50;;;10.30;99.90;;;;;;5077376;28;20196;-80
2022/11/12 07:08:10;;;;;;;0.20;0.20;;;10.20;99.90;;;;;;5095544;28;20199;-80
2022/11/12 07:10:36;;;;;;;0.30;0.30;;;10.10;99.90;;;;;;5061696;28;20208;-81
2022/11/12 07:13:02;;;;;;;0.57;0.40;;;10.00;99.90;;;;;;5096924;28;20558;-80
2022/11/12 07:15:28;;;;;;;0.20;0.20;;;10.00;99.90;;;;;;5077985;28;20216;-80
2022/11/12 07:17:57;;;;;;;15.20;1.27;;;9.90;99.90;;;;;;5077013;28;20204;-81
2022/11/12 07:20:22;;;;;;;0.20;0.20;;;9.90;99.90;;;;;;5060364;28;20658;-80
2022/11/12 07:22:50;;;;;;;0.75;0.73;;;9.80;99.90;;;;;;5093714;28;20275;-80
2022/11/12 07:25:16;;;;;;;1.75;1.00;;;9.80;99.90;;;;;;5094296;28;20744;-80
2022/11/12 07:27:42;;;;;;;0.20;0.20;;;9.70;99.90;;;;;;5093995;28;20227;-81
2022/11/12 07:30:08;;;;;;;0.20;0.20;;;9.60;99.90;;;;;;5094999;28;20197;-81
2022/11/12 07:32:35;;;;;;;0.30;0.30;;;9.50;99.90;;;;;;5095550;28;20250;-80
2022/11/12 07:35:01;;;;;;;0.20;0.20;;;9.40;99.90;;;;;;5095298;28;20569;-80
2022/11/12 07:37:29;;;;;;;0.20;0.20;;;9.50;99.90;;;;;;5101354;28;20622;-80
2022/11/12 07:39:55;;;;;;;0.55;0.40;;;9.40;99.90;;;;;;5118809;28;20196;-80
2022/11/12 07:42:21;;;;;;;0.20;0.20;;;9.30;99.90;;;;;;5118645;28;20231;-81
2022/11/12 07:44:46;;;;;;;0.20;0.20;;;9.30;99.90;;;;;;5118300;28;20195;-81
2022/11/12 07:47:12;;;;;;;2.03;0.85;;;9.30;99.90;;;;;;5115554;28;20607;-81
2022/11/12 07:49:38;;;;;;;0.20;0.20;;;9.30;99.90;;;;;;5114491;28;20203;-81
2022/11/12 07:52:04;;;;;;;0.90;0.90;;;9.30;99.90;;;;;;5114426;28;20221;-81
2022/11/12 07:54:29;;;;;;;2.95;0.60;;;9.30;99.90;;;;;;5113722;28;20230;-80
2022/11/12 07:56:55;;;;;;;0.47;0.47;;;9.40;99.90;;;;;;5115307;28;20223;-81
2022/11/12 07:59:21;;;;;;;0.20;0.20;;;9.40;99.90;;;;;;5115963;28;20697;-81
2022/11/12 08:01:47;;;;;;;0.47;0.35;;;9.40;99.90;;;;;;5097673;28;20195;-81
2022/11/12 08:04:15;;;;;;;0.25;0.25;;;9.30;99.90;;;;;;5097806;28;20199;-80
2022/11/12 08:06:41;;;;;;;0.10;0.10;;;9.30;99.90;;;;;;5097688;28;20198;-81
2022/11/12 08:09:07;;;;;;;0.20;0.20;;;9.30;99.90;;;;;;5098040;28;20195;-81
2022/11/12 08:11:33;;;;;;;0.20;0.20;;;9.30;99.90;;;;;;5097336;28;20282;-81
2022/11/12 08:14:00;;;;;;;0.20;0.20;;;9.30;99.90;;;;;;5115199;28;20654;-81
2022/11/12 08:16:26;;;;;;;0.20;0.20;;;9.20;99.90;;;;;;5115525;28;20211;-81
2022/11/12 08:18:52;;;;;;;0.20;0.20;;;9.40;99.90;;;;;;5098106;28;20248;-81
2022/11/12 08:21:18;;;;;;;0.20;0.20;;;9.70;99.90;;;;;;5097579;28;20199;-80
2022/11/12 08:23:45;;;;;;;0.50;0.50;;;9.80;99.90;;;;;;5097426;28;20308;-80
2022/11/12 08:26:15;;;;;;;0.20;0.20;;;9.80;99.90;;;;;;5096751;28;20207;-80
2022/11/12 08:28:41;;;;;;;0.20;0.20;;;9.90;99.90;;;;;;5096578;28;20678;-80
2022/11/12 08:31:14;;;;;;;0.20;0.20;;;9.90;99.90;;;;;;5096627;28;20235;-80
2022/11/12 08:33:40;;;;;;;0.20;0.20;;;10.10;99.90;;;;;;5114697;28;20623;-80
2022/11/12 08:36:08;;;;;;;4.38;1.75;;;10.50;99.90;;;;;;5113029;28;20203;-80
2022/11/12 08:38:35;;;;;;;0.20;0.20;;;10.70;99.90;;;;;;5114782;28;20674;-81
2022/11/12 08:41:02;;;;;;;0.20;0.20;;;10.70;99.90;;;;;;5115783;28;20282;-81
2022/11/12 08:43:31;;;;;;;0.20;0.20;;;10.90;99.90;;;;;;5115552;28;20222;-78
2022/11/12 08:45:58;;;;;;;0.20;0.20;;;11.10;99.90;;;;;;5095870;28;20200;-81
2022/11/12 08:48:25;;;;;;;0.20;0.20;;;11.20;99.90;;;;;;5077765;28;20199;-80
2022/11/12 08:50:52;;;;;;;0.40;0.40;;;11.20;99.90;;;;;;5077373;28;20192;-79
2022/11/12 08:53:17;;;;;;;0.20;0.20;;;11.30;99.90;;;;;;5075956;28;20195;-80
2022/11/12 08:55:43;;;;;;;0.30;0.30;;;11.40;99.90;;;;;;5093852;28;20228;-81
2022/11/12 08:58:09;;;;;;;0.20;0.20;;;11.70;99.90;;;;;;5091912;28;20283;-80
2022/11/12 09:00:43;;;;;;;0.20;0.20;;;11.90;99.90;;;;;;5075439;28;20204;-80
2022/11/12 09:03:19;;;;;;;0.30;0.30;;;11.90;99.90;;;;;;5076014;28;20188;-80
2022/11/12 09:05:59;;;;;;;0.20;0.20;;;11.90;99.90;;;;;;5059370;28;20666;-80
2022/11/12 09:08:26;;;;;;;0.38;0.38;;;11.90;99.90;;;;;;5092747;28;20212;-80
2022/11/12 09:10:52;;;;;;;0.20;0.20;;;12.10;99.90;;;;;;5093107;28;20279;-80
2022/11/12 09:13:18;;;;;;;0.28;0.28;;;12.20;99.90;;;;;;5058993;28;20204;-80
2022/11/12 09:15:45;;;;;;;0.40;0.40;;;12.30;99.90;;;;;;5075571;28;20622;-80
2022/11/12 09:18:13;;;;;;;0.20;0.20;;;12.30;99.90;;;;;;5074595;28;20196;-80
2022/11/12 09:20:40;;;;;;;0.88;0.35;;;12.30;99.90;;;;;;5075684;28;20224;-80
2022/11/12 09:23:14;;;;;;;0.20;0.20;;;12.20;99.90;;;;;;5093891;28;20189;-80
2022/11/12 09:25:41;;;;;;;0.20;0.20;;;12.10;99.90;;;;;;5074915;28;20577;-79
2022/11/12 09:28:13;;;;;;;0.20;0.20;;;12.10;99.90;;;;;;5075541;28;20196;-80
2022/11/12 09:30:45;;;;;;;0.20;0.20;;;12.00;99.90;;;;;;5090315;28;20689;-80
2022/11/12 09:33:12;;;;;;;0.20;0.20;;;11.90;99.90;;;;;;5095878;28;20199;-80
2022/11/12 09:35:38;;;;;;;0.20;0.20;;;11.60;99.90;;;;;;5114000;28;20272;-80
2022/11/12 09:38:04;;;;;;;0.20;0.20;;;11.50;99.90;;;;;;5113513;28;20218;-82
2022/11/12 09:40:39;;;;;;;0.20;0.20;;;11.40;99.90;;;;;;5095106;28;20490;-80
2022/11/12 09:43:32;;;;;;;0.20;0.20;;;11.40;99.90;;;;;;5095596;28;20356;-80
2022/11/12 09:46:10;;;;;;;0.20;0.20;;;11.30;99.90;;;;;;5076079;28;20196;-80
2022/11/12 09:48:41;;;;;;;0.28;0.28;;;11.10;99.90;;;;;;5075493;28;20206;-81
2022/11/12 09:51:29;;;;;;;0.22;0.22;;;10.90;99.90;;;;;;5076384;28;20207;-80
2022/11/12 09:53:58;;;;;;;1.10;0.40;;;10.70;99.90;;;;;;5078116;28;20671;-80
2022/11/12 09:56:28;;;;;;;0.20;0.20;;;10.60;99.90;;;;;;5078465;28;20698;-80
2022/11/12 09:58:57;;;;;;;0.35;0.35;;;10.60;99.90;;;;;;5078533;28;20188;-80
2022/11/12 10:01:44;;;;;;;0.20;0.20;;;10.40;99.90;;;;;;5078814;28;20196;-80
2022/11/12 10:04:35;;;;;;;0.20;0.20;;;10.30;99.90;;;;;;5079144;28;20188;-80
2022/11/12 10:07:42;;;;;;;0.20;0.20;;;10.20;99.90;;;;;;5103094;28;20669;-80
2022/11/12 10:10:12;;;;;;;0.20;0.20;;;10.20;99.90;;;;;;5099709;28;20256;-80
2022/11/12 10:13:01;;;;;;;0.20;0.20;;;10.10;99.90;;;;;;5117694;28;20289;-80
2022/11/12 10:18:34;;;;;;;0.20;0.20;;;10.20;99.90;;;;;;5116835;28;20277;-80
2022/11/12 10:21:09;;;;;;;0.20;0.20;;;10.20;99.90;;;;;;5098427;28;20201;-80
2022/11/12 10:23:46;;;;;;;0.20;0.20;;;10.20;99.90;;;;;;5097838;28;20662;-79
2022/11/12 10:26:18;;;;;;;0.20;0.20;;;10.20;99.90;;;;;;5097808;28;20700;-80
2022/11/12 10:29:11;;;;;;;0.20;0.20;;;10.20;99.90;;;;;;5116253;28;20718;-80
2022/11/12 10:31:37;;;;;;;0.20;0.20;;;10.20;99.90;;;;;;5097501;28;20565;-79
2022/11/12 10:34:15;;;;;;;0.30;0.30;;;10.20;99.90;;;;;;5097373;28;20276;-80
2022/11/12 10:37:13;;;;;;;0.30;0.30;;;10.20;99.90;;;;;;5097582;28;20657;-80
2022/11/12 10:39:46;;;;;;;0.40;0.40;;;10.20;99.90;;;;;;5063577;28;20726;-80
2022/11/12 10:42:20;;;;;;;0.20;0.20;;;10.40;99.90;;;;;;5097494;28;20196;-79
2022/11/12 10:44:47;;;;;;;0.65;0.65;;;10.40;99.90;;;;;;5097399;28;20191;-80
2022/11/12 10:47:40;;;;;;;0.20;0.20;;;10.50;99.90;;;;;;5097632;28;20203;-80
2022/11/12 10:50:15;;;;;;;0.20;0.20;;;10.50;99.90;;;;;;5099040;28;20219;-80
2022/11/12 10:52:57;;;;;;;0.90;0.57;;;10.70;99.90;;;;;;5097907;28;20203;-80
2022/11/12 10:55:30;;;;;;;0.20;0.20;;;10.80;99.90;;;;;;5098009;28;20222;-79
2022/11/12 10:58:12;;;;;;;0.20;0.20;;;10.80;99.90;;;;;;5098025;28;20634;-80
2022/11/12 11:01:02;;;;;;;0.20;0.20;;;10.80;99.90;;;;;;5075284;28;21246;-80
2022/11/12 11:03:48;;;;;;;0.20;0.20;;;10.90;99.90;;;;;;5056747;28;20200;-79
2022/11/12 11:06:23;;;;;;;0.20;0.20;;;11.10;99.90;;;;;;5057494;28;20197;-79
2022/11/12 11:09:16;;;;;;;0.30;0.30;;;11.30;99.90;;;;;;5076258;28;20565;-79
2022/11/12 11:11:52;;;;;;;0.20;0.20;;;11.60;99.90;;;;;;5057758;28;20200;-79
2022/11/12 11:14:38;;;;;;;0.35;0.35;;;11.90;99.90;;;;;;5075944;28;20190;-79
2022/11/12 11:17:16;;;;;;;0.20;0.20;;;12.20;99.90;;;;;;5057566;28;20594;-79
2022/11/12 11:19:43;;;;;;;0.20;0.20;;;12.60;99.90;;;;;;5057022;28;20197;-79
2022/11/12 11:22:36;;;;;;;0.10;0.10;;;12.70;99.90;;;;;;5064027;28;20223;-79
2022/11/12 11:25:29;;;;;;;0.28;0.28;;;12.80;99.90;;;;;;5096074;28;20192;-79
2022/11/12 11:28:26;;;;;;;0.15;0.15;;;12.90;99.90;;;;;;5077234;28;20317;-79
2022/11/12 11:31:04;;;;;;;0.20;0.20;;;13.10;99.90;;;;;;5095310;28;20203;-78
2022/11/12 11:33:52;;;;;;;0.20;0.20;;;13.10;99.90;;;;;;5076697;28;20207;-78
2022/11/12 11:36:52;;;;;;;0.13;0.13;;;13.10;99.90;;;;;;5075855;28;20266;-78
2022/11/12 11:40:11;;;;;;;0.10;0.10;;;13.00;99.90;;;;;;5077297;28;20196;-79
2022/11/12 11:42:53;;;;;;;0.20;0.20;;;13.00;99.90;;;;;;5026402;28;20215;-79
2022/11/12 11:45:57;;;;;;;0.10;0.10;;;13.10;99.90;;;;;;5091682;28;20591;-79
2022/11/12 11:48:47;;;;;;;0.25;0.25;;;13.00;99.90;;;;;;5095514;28;20203;-79
2022/11/12 11:51:30;;;;;;;0.68;0.68;;;12.60;99.90;;;;;;5075556;28;20223;-79
2022/11/12 11:54:08;;;;;;;0.20;0.20;;;12.30;99.90;;;;;;5095060;28;20604;-79
2022/11/12 11:56:41;;;;;;;0.43;0.43;;;12.20;99.90;;;;;;5082497;28;20232;-79
2022/11/12 11:59:28;;;;;;;0.20;0.20;;;12.00;99.90;;;;;;5097299;27;20679;-80
2022/11/12 12:02:22;;;;;;;0.20;0.20;;;11.80;99.90;;;;;;5094911;28;20199;-78
2022/11/12 12:05:10;;;;;;;0.10;0.10;;;11.90;99.90;;;;;;5097492;28;20204;-80
2022/11/12 12:08:14;;;;;;;0.28;0.28;;;11.90;99.90;;;;;;5097597;28;20255;-80
2022/11/12 12:10:45;;;;;;;0.20;0.20;;;11.80;99.90;;;;;;5115746;28;20198;-79
2022/11/12 12:13:43;;;;;;;0.20;0.20;;;11.80;99.90;;;;;;5115646;28;20191;-80
2022/11/12 12:16:49;;;;;;;0.20;0.20;;;11.60;99.90;;;;;;5087372;28;20227;-78
2022/11/12 12:19:49;;;;;;;0.20;0.20;;;11.50;99.90;;;;;;5091097;28;20215;-78
2022/11/12 12:22:34;;;;;;;0.50;0.50;;;11.40;99.90;;;;;;5128165;28;20191;-77
2022/11/12 12:25:20;;;;;;;0.50;0.50;;;11.30;99.90;;;;;;5145920;27;20207;-77
2022/11/12 12:28:06;;;;;;;0.50;0.50;;;11.20;99.90;;;;;;5144588;27;20552;-78
2022/11/12 12:30:39;;;;;;;0.70;0.70;;;11.10;99.90;;;;;;5122739;28;20665;-76
2022/11/12 12:33:35;;;;;;;0.43;0.43;;;10.90;99.90;;;;;;5123072;27;20191;-77
2022/11/12 12:36:42;;;;;;;0.50;0.50;;;10.90;99.90;;;;;;5120572;28;20274;-78
2022/11/12 12:39:16;;;;;;;0.43;0.43;;;11.20;99.90;;;;;;5020496;28;20665;-78
2022/11/12 12:41:54;;;;;;;0.50;0.50;;;11.10;99.90;;;;;;5019599;28;20289;-77
2022/11/12 12:47:18;;;;;;;0.60;0.60;;;10.90;99.90;;;;;;5015356;28;20250;-79
2022/11/12 12:49:46;;;;;;;1.17;0.73;;;10.70;99.90;;;;;;4998009;28;20195;-77
2022/11/12 12:52:27;;;;;;;0.50;0.50;;;10.60;99.90;;;;;;5014567;28;20194;-78
2022/11/12 12:54:59;;;;;;;0.60;0.60;;;10.50;99.90;;;;;;4997748;28;20254;-77
2022/11/12 12:57:28;;;;;;;0.50;0.50;;;10.50;99.90;;;;;;5010973;28;20361;-78
2022/11/12 13:00:39;;;;;;;0.52;0.52;;;10.80;99.90;;;;;;5015932;28;20237;-77
2022/11/12 13:03:32;;;;;;;0.60;0.60;;;10.90;99.90;;;;;;4957564;28;20219;-78
2022/11/12 13:06:20;;;;;;;0.50;0.50;;;10.70;99.90;;;;;;5032356;28;20207;-77
2022/11/12 13:09:02;;;;;;;0.60;0.60;;;10.80;99.90;;;;;;5012800;28;20249;-77
2022/11/12 13:15:06;;;;;;;0.50;0.50;;;10.60;99.90;;;;;;5071916;28;20289;-79
2022/11/12 13:17:47;;;;;;;0.50;0.50;;;10.60;99.90;;;;;;5056263;28;20204;-78
2022/11/12 13:20:40;;;;;;;0.50;0.50;;;10.50;99.90;;;;;;5076688;28;20246;-79
2022/11/12 13:26:46;;;;;;;0.50;0.50;;;10.30;99.90;;;;;;5095089;28;20289;-78
2022/11/12 13:29:27;;;;;;;0.50;0.50;;;10.50;99.90;;;;;;5078525;28;20266;-78
2022/11/12 13:32:32;;;;;;;0.50;0.50;;;10.60;99.90;;;;;;5079677;28;20204;-79
2022/11/12 13:35:48;;;;;;;0.50;0.50;;;10.40;99.90;;;;;;5079633;28;20238;-77
2022/11/12 13:38:18;;;;;;;0.50;0.50;;;10.20;99.90;;;;;;5056561;28;20223;-78
2022/11/12 13:40:49;;;;;;;0.50;0.50;;;10.00;99.90;;;;;;5079016;28;20199;-79
2022/11/12 13:43:17;;;;;;;0.60;0.60;;;9.90;99.90;;;;;;5078886;28;20203;-78
2022/11/12 13:46:13;;;;;;;0.50;0.50;;;9.70;99.90;;;;;;5078224;28;20277;-78
2022/11/12 13:48:57;;;;;;;0.40;0.40;;;9.70;99.90;;;;;;5077995;28;20576;-79